createdAt,value
2018-11-26T00:00:47.652Z,1028.44
2018-11-26T00:01:47.638Z,1028.46
2018-11-26T00:02:47.624Z,1028.44
2018-11-26T00:03:47.612Z,1028.43
2018-11-26T00:04:47.601Z,1028.38
2018-11-26T00:05:47.584Z,1028.43
2018-11-26T00:06:47.571Z,1028.42
2018-11-26T00:07:47.569Z,1028.43
2018-11-26T00:08:47.544Z,1028.4
2018-11-26T00:09:47.531Z,1028.45
2018-11-26T00:10:47.517Z,1028.42
2018-11-26T00:11:47.503Z,1028.44
2018-11-26T00:12:47.488Z,1028.45
2018-11-26T00:13:47.476Z,1028.48
2018-11-26T00:14:47.462Z,1028.52
2018-11-26T00:15:47.449Z,1028.47
2018-11-26T00:16:47.435Z,1028.5
2018-11-26T00:17:47.422Z,1028.48
2018-11-26T00:18:47.408Z,1028.42
2018-11-26T00:19:47.395Z,1028.42
2018-11-26T00:20:47.384Z,1028.48
2018-11-26T00:21:47.369Z,1028.44
2018-11-26T00:22:47.358Z,1028.44
2018-11-26T00:23:47.344Z,1028.48
2018-11-26T00:24:47.327Z,1028.53
2018-11-26T00:25:47.314Z,1028.54
2018-11-26T00:26:47.305Z,1028.56
2018-11-26T00:27:47.285Z,1028.54
2018-11-26T00:28:47.273Z,1028.58
2018-11-26T00:29:47.259Z,1028.53
2018-11-26T00:30:47.245Z,1028.45
2018-11-26T00:31:47.232Z,1028.48
2018-11-26T00:32:47.218Z,1028.38
2018-11-26T00:33:47.204Z,1028.46
2018-11-26T00:34:47.190Z,1028.52
2018-11-26T00:35:47.176Z,1028.52
2018-11-26T00:36:47.163Z,1028.49
2018-11-26T00:37:47.150Z,1028.53
2018-11-26T00:38:47.136Z,1028.53
2018-11-26T00:39:47.124Z,1028.5
2018-11-26T00:40:47.110Z,1028.55
2018-11-26T00:41:47.102Z,1028.54
2018-11-26T00:42:47.082Z,1028.54
2018-11-26T00:43:47.070Z,1028.54
2018-11-26T00:44:47.057Z,1028.53
2018-11-26T00:45:47.043Z,1028.57
2018-11-26T00:46:47.030Z,1028.57
2018-11-26T00:47:47.015Z,1028.6
2018-11-26T00:48:47.000Z,1028.54
2018-11-26T00:49:46.987Z,1028.52
2018-11-26T00:50:46.973Z,1028.54
2018-11-26T00:51:46.960Z,1028.55
2018-11-26T00:52:46.947Z,1028.52
2018-11-26T00:53:46.932Z,1028.52
2018-11-26T00:54:46.920Z,1028.51
2018-11-26T00:55:46.905Z,1028.55
2018-11-26T00:56:46.892Z,1028.57
2018-11-26T00:57:46.877Z,1028.56
2018-11-26T00:58:46.864Z,1028.54
2018-11-26T00:59:46.849Z,1028.53
2018-11-26T01:00:46.836Z,1028.51
2018-11-26T01:01:46.823Z,1028.52
2018-11-26T01:02:46.808Z,1028.52
2018-11-26T01:03:46.795Z,1028.55
2018-11-26T01:04:46.780Z,1028.59
2018-11-26T01:05:46.766Z,1028.61
2018-11-26T01:06:46.753Z,1028.63
2018-11-26T01:07:46.739Z,1028.66
2018-11-26T01:08:46.726Z,1028.76
2018-11-26T01:09:46.713Z,1028.75
2018-11-26T01:10:46.698Z,1028.79
2018-11-26T01:11:46.684Z,1028.85
2018-11-26T01:12:46.669Z,1028.93
2018-11-26T01:13:46.657Z,1028.98
2018-11-26T01:14:46.641Z,1029.03
2018-11-26T01:15:46.628Z,1029.02
2018-11-26T01:16:46.614Z,1029.11
2018-11-26T01:17:46.600Z,1029.14
2018-11-26T01:18:46.585Z,1029.19
2018-11-26T01:19:46.573Z,1029.25
2018-11-26T01:20:46.558Z,1029.27
2018-11-26T01:21:46.543Z,1029.34
2018-11-26T01:22:46.529Z,1029.35
2018-11-26T01:23:46.516Z,1029.45
2018-11-26T01:24:46.501Z,1029.44
2018-11-26T01:25:46.485Z,1029.51
2018-11-26T01:26:46.471Z,1029.54
2018-11-26T01:27:46.457Z,1029.57
2018-11-26T01:28:46.444Z,1029.61
2018-11-26T01:29:46.427Z,1029.58
2018-11-26T01:30:46.414Z,1029.63
2018-11-26T01:31:46.399Z,1029.7
2018-11-26T01:32:46.384Z,1029.75
2018-11-26T01:33:46.370Z,1029.68
2018-11-26T01:34:46.355Z,1029.64
2018-11-26T01:35:46.340Z,1029.74
2018-11-26T01:36:46.325Z,1029.62
2018-11-26T01:37:46.312Z,1029.58
2018-11-26T01:38:46.296Z,1029.55
2018-11-26T01:39:46.281Z,1029.54
2018-11-26T01:40:46.265Z,1029.56
2018-11-26T01:41:46.254Z,1029.61
2018-11-26T01:42:46.236Z,1029.56
2018-11-26T01:43:46.221Z,1029.56
2018-11-26T01:44:46.206Z,1029.55
2018-11-26T01:45:46.191Z,1029.55
2018-11-26T01:46:46.177Z,1029.52
2018-11-26T01:47:46.162Z,1029.52
2018-11-26T01:48:46.148Z,1029.47
2018-11-26T01:49:46.134Z,1029.46
2018-11-26T01:50:46.117Z,1029.41
2018-11-26T01:51:46.101Z,1029.4
2018-11-26T01:52:46.088Z,1029.4
2018-11-26T01:53:46.071Z,1029.35
2018-11-26T01:54:46.056Z,1029.3
2018-11-26T01:55:46.042Z,1029.3
2018-11-26T01:56:46.026Z,1029.29
2018-11-26T01:57:46.012Z,1029.25
2018-11-26T01:58:45.996Z,1029.25
2018-11-26T01:59:45.982Z,1029.26
2018-11-26T02:00:45.968Z,1029.18
2018-11-26T02:01:45.952Z,1029.2
2018-11-26T02:02:45.937Z,1029.12
2018-11-26T02:03:45.922Z,1029.11
2018-11-26T02:04:45.907Z,1029.14
2018-11-26T02:05:45.892Z,1029.11
2018-11-26T02:06:45.877Z,1029.24
2018-11-26T02:07:45.863Z,1029.2
2018-11-26T02:08:45.849Z,1029.22
2018-11-26T02:09:45.833Z,1029.15
2018-11-26T02:10:45.818Z,1029.17
2018-11-26T02:11:45.809Z,1029.11
2018-11-26T02:12:45.790Z,1029.11
2018-11-26T02:13:45.775Z,1029.06
2018-11-26T02:14:45.760Z,1029.06
2018-11-26T02:15:45.746Z,1028.98
2018-11-26T02:16:45.730Z,1028.96
2018-11-26T02:17:45.715Z,1028.98
2018-11-26T02:18:45.701Z,1028.97
2018-11-26T02:19:45.687Z,1028.97
2018-11-26T02:20:45.672Z,1028.98
2018-11-26T02:21:45.656Z,1028.96
2018-11-26T02:22:45.642Z,1028.97
2018-11-26T02:23:45.627Z,1028.97
2018-11-26T02:24:45.613Z,1028.97
2018-11-26T02:25:45.599Z,1028.97
2018-11-26T02:26:45.584Z,1029.02
2018-11-26T02:27:45.568Z,1029.14
2018-11-26T02:28:45.554Z,1029.1
2018-11-26T02:29:45.539Z,1029.05
2018-11-26T02:30:45.525Z,1029.12
2018-11-26T02:31:45.509Z,1029.07
2018-11-26T02:32:45.499Z,1029.15
2018-11-26T02:33:45.480Z,1029.05
2018-11-26T02:34:45.465Z,1029.18
2018-11-26T02:35:45.453Z,1029.14
2018-11-26T02:36:45.436Z,1029.11
2018-11-26T02:37:45.421Z,1029.08
2018-11-26T02:38:45.406Z,1029.14
2018-11-26T02:39:45.391Z,1029.14
2018-11-26T02:40:45.377Z,1029.19
2018-11-26T02:41:45.373Z,1029.15
2018-11-26T02:42:45.348Z,1029.16
2018-11-26T02:43:45.332Z,1029.08
2018-11-26T02:44:45.317Z,1029.09
2018-11-26T02:45:45.302Z,1029.08
2018-11-26T02:46:45.287Z,1029.1
2018-11-26T02:47:45.272Z,1029.11
2018-11-26T02:48:45.260Z,1029.07
2018-11-26T02:49:45.242Z,1029.1
2018-11-26T02:50:45.228Z,1029.14
2018-11-26T02:51:45.213Z,1029.11
2018-11-26T02:52:45.198Z,1029.2
2018-11-26T02:53:45.182Z,1029.18
2018-11-26T02:54:45.167Z,1029.11
2018-11-26T02:55:45.153Z,1029.19
2018-11-26T02:56:45.137Z,1029.18
2018-11-26T02:57:45.122Z,1029.27
2018-11-26T02:58:45.108Z,1029.23
2018-11-26T02:59:45.092Z,1029.21
2018-11-26T03:00:45.076Z,1029.24
2018-11-26T03:01:45.064Z,1029.2
2018-11-26T03:02:45.048Z,1029.25
2018-11-26T03:03:45.033Z,1029.25
2018-11-26T03:04:45.018Z,1029.32
2018-11-26T03:05:45.003Z,1029.27
2018-11-26T03:06:44.987Z,1029.29
2018-11-26T03:07:44.971Z,1029.25
2018-11-26T03:08:44.956Z,1029.31
2018-11-26T03:09:44.941Z,1029.34
2018-11-26T03:10:44.926Z,1029.34
2018-11-26T03:11:44.913Z,1029.37
2018-11-26T03:12:44.896Z,1029.45
2018-11-26T03:13:44.881Z,1029.4
2018-11-26T03:14:44.866Z,1029.56
2018-11-26T03:15:44.850Z,1029.43
2018-11-26T03:16:44.837Z,1029.52
2018-11-26T03:17:44.820Z,1029.4
2018-11-26T03:18:44.804Z,1029.41
2018-11-26T03:19:44.790Z,1029.38
2018-11-26T03:20:44.776Z,1029.37
2018-11-26T03:21:44.760Z,1029.37
2018-11-26T03:22:44.747Z,1029.4
2018-11-26T03:23:44.729Z,1029.37
2018-11-26T03:24:44.713Z,1029.4
2018-11-26T03:25:44.699Z,1029.38
2018-11-26T03:26:44.683Z,1029.37
2018-11-26T03:27:44.670Z,1029.37
2018-11-26T03:28:44.653Z,1029.33
2018-11-26T03:29:44.637Z,1029.37
2018-11-26T03:30:44.622Z,1029.36
2018-11-26T03:31:44.610Z,1029.36
2018-11-26T03:32:44.603Z,1029.33
2018-11-26T03:33:44.577Z,1029.38
2018-11-26T03:34:44.562Z,1029.33
2018-11-26T03:35:44.547Z,1029.39
2018-11-26T03:36:44.532Z,1029.34
2018-11-26T03:37:44.517Z,1029.32
2018-11-26T03:38:44.501Z,1029.38
2018-11-26T03:39:44.486Z,1029.34
2018-11-26T03:40:44.470Z,1029.33
2018-11-26T03:41:44.456Z,1029.32
2018-11-26T03:42:44.440Z,1029.34
2018-11-26T03:43:44.426Z,1029.31
2018-11-26T03:44:44.412Z,1029.31
2018-11-26T03:45:44.395Z,1029.28
2018-11-26T03:46:44.381Z,1029.29
2018-11-26T03:47:44.376Z,1029.32
2018-11-26T03:48:44.351Z,1029.3
2018-11-26T03:49:44.337Z,1029.24
2018-11-26T03:50:44.322Z,1029.24
2018-11-26T03:51:44.307Z,1029.3
2018-11-26T03:52:44.292Z,1029.33
2018-11-26T03:53:44.277Z,1029.31
2018-11-26T03:54:44.262Z,1029.32
2018-11-26T03:55:44.246Z,1029.32
2018-11-26T03:56:44.230Z,1029.32
2018-11-26T03:57:44.216Z,1029.34
2018-11-26T03:58:44.200Z,1029.36
2018-11-26T03:59:44.186Z,1029.36
2018-11-26T04:00:44.171Z,1029.35
2018-11-26T04:01:44.156Z,1029.36
2018-11-26T04:02:44.140Z,1029.3
2018-11-26T04:03:44.125Z,1029.34
2018-11-26T04:04:44.110Z,1029.34
2018-11-26T04:05:44.100Z,1029.33
2018-11-26T04:06:44.080Z,1029.41
2018-11-26T04:07:44.065Z,1029.48
2018-11-26T04:08:44.053Z,1029.51
2018-11-26T04:09:44.034Z,1029.48
2018-11-26T04:10:44.020Z,1029.48
2018-11-26T04:11:44.005Z,1029.51
2018-11-26T04:12:43.990Z,1029.5
2018-11-26T04:13:43.974Z,1029.5
2018-11-26T04:14:43.960Z,1029.48
2018-11-26T04:15:43.945Z,1029.48
2018-11-26T04:16:43.930Z,1029.43
2018-11-26T04:17:43.914Z,1029.43
2018-11-26T04:18:43.899Z,1029.4
2018-11-26T04:19:43.889Z,1029.39
2018-11-26T04:20:43.868Z,1029.41
2018-11-26T04:21:43.854Z,1029.45
2018-11-26T04:22:43.838Z,1029.45
2018-11-26T04:23:43.824Z,1029.4
2018-11-26T04:24:43.810Z,1029.44
2018-11-26T04:25:43.793Z,1029.38
2018-11-26T04:26:43.778Z,1029.4
2018-11-26T04:27:43.765Z,1029.41
2018-11-26T04:28:43.748Z,1029.45
2018-11-26T04:29:43.733Z,1029.47
2018-11-26T04:30:43.719Z,1029.45
2018-11-26T04:31:43.703Z,1029.48
2018-11-26T04:32:43.688Z,1029.48
2018-11-26T04:33:43.682Z,1029.49
2018-11-26T04:34:43.660Z,1029.51
2018-11-26T04:35:43.644Z,1029.52
2018-11-26T04:36:43.629Z,1029.55
2018-11-26T04:37:43.612Z,1029.51
2018-11-26T04:38:43.599Z,1029.52
2018-11-26T04:39:43.584Z,1029.51
2018-11-26T04:40:43.569Z,1029.55
2018-11-26T04:41:43.557Z,1029.58
2018-11-26T04:42:43.540Z,1029.59
2018-11-26T04:43:43.525Z,1029.62
2018-11-26T04:44:43.509Z,1029.63
2018-11-26T04:45:43.499Z,1029.6
2018-11-26T04:46:43.478Z,1029.6
2018-11-26T04:47:43.463Z,1029.59
2018-11-26T04:48:43.449Z,1029.58
2018-11-26T04:49:43.434Z,1029.59
2018-11-26T04:50:43.418Z,1029.6
2018-11-26T04:51:43.404Z,1029.57
2018-11-26T04:52:43.390Z,1029.53
2018-11-26T04:53:43.379Z,1029.58
2018-11-26T04:54:43.359Z,1029.59
2018-11-26T04:55:43.344Z,1029.61
2018-11-26T04:56:43.328Z,1029.66
2018-11-26T04:57:43.314Z,1029.58
2018-11-26T04:58:43.299Z,1029.57
2018-11-26T04:59:43.285Z,1029.6
2018-11-26T05:00:43.272Z,1029.54
2018-11-26T05:01:43.257Z,1029.54
2018-11-26T05:02:43.239Z,1029.47
2018-11-26T05:03:43.225Z,1029.47
2018-11-26T05:04:43.209Z,1029.45
2018-11-26T05:05:43.194Z,1029.46
2018-11-26T05:06:43.180Z,1029.42
2018-11-26T05:07:43.170Z,1029.43
2018-11-26T05:08:43.149Z,1029.49
2018-11-26T05:09:43.134Z,1029.49
2018-11-26T05:10:43.119Z,1029.48
2018-11-26T05:11:43.104Z,1029.47
2018-11-26T05:12:43.097Z,1029.5
2018-11-26T05:13:43.074Z,1029.5
2018-11-26T05:14:43.059Z,1029.45
2018-11-26T05:15:43.045Z,1029.46
2018-11-26T05:16:43.028Z,1029.41
2018-11-26T05:17:43.013Z,1029.4
2018-11-26T05:18:43.000Z,1029.48
2018-11-26T05:19:42.983Z,1029.52
2018-11-26T05:20:42.968Z,1029.53
2018-11-26T05:21:42.953Z,1029.54
2018-11-26T05:22:42.939Z,1029.55
2018-11-26T05:23:42.927Z,1029.55
2018-11-26T05:24:42.909Z,1029.53
2018-11-26T05:25:42.894Z,1029.53
2018-11-26T05:26:42.881Z,1029.53
2018-11-26T05:27:42.869Z,1029.54
2018-11-26T05:28:42.848Z,1029.51
2018-11-26T05:29:42.832Z,1029.54
2018-11-26T05:30:42.817Z,1029.5
2018-11-26T05:31:42.812Z,1029.47
2018-11-26T05:32:42.789Z,1029.46
2018-11-26T05:33:42.772Z,1029.47
2018-11-26T05:34:42.758Z,1029.48
2018-11-26T05:35:42.742Z,1029.46
2018-11-26T05:36:42.731Z,1029.45
2018-11-26T05:37:42.713Z,1029.47
2018-11-26T05:38:42.698Z,1029.42
2018-11-26T05:39:42.683Z,1029.41
2018-11-26T05:40:42.668Z,1029.44
2018-11-26T05:41:42.657Z,1029.43
2018-11-26T05:42:42.637Z,1029.45
2018-11-26T05:43:42.623Z,1029.41
2018-11-26T05:44:42.606Z,1029.42
2018-11-26T05:45:42.596Z,1029.44
2018-11-26T05:46:42.577Z,1029.46
2018-11-26T05:47:42.562Z,1029.42
2018-11-26T05:48:42.547Z,1029.39
2018-11-26T05:49:42.532Z,1029.34
2018-11-26T05:50:42.517Z,1029.37
2018-11-26T05:51:42.502Z,1029.32
2018-11-26T05:52:42.486Z,1029.27
2018-11-26T05:53:42.473Z,1029.3
2018-11-26T05:54:42.455Z,1029.32
2018-11-26T05:55:42.442Z,1029.31
2018-11-26T05:56:42.428Z,1029.28
2018-11-26T05:57:42.411Z,1029.24
2018-11-26T05:58:42.397Z,1029.24
2018-11-26T05:59:42.381Z,1029.25
2018-11-26T06:00:42.367Z,1029.23
2018-11-26T06:01:42.352Z,1029.26
2018-11-26T06:02:42.337Z,1029.23
2018-11-26T06:03:42.321Z,1029.21
2018-11-26T06:04:42.306Z,1029.19
2018-11-26T06:05:42.291Z,1029.16
2018-11-26T06:06:42.277Z,1029.14
2018-11-26T06:07:42.262Z,1029.18
2018-11-26T06:08:42.248Z,1029.14
2018-11-26T06:09:42.233Z,1029.19
2018-11-26T06:10:42.217Z,1029.18
2018-11-26T06:11:42.203Z,1029.15
2018-11-26T06:12:42.189Z,1029.11
2018-11-26T06:13:42.173Z,1029.13
2018-11-26T06:14:42.158Z,1029.14
2018-11-26T06:15:42.144Z,1029.15
2018-11-26T06:16:42.129Z,1029.17
2018-11-26T06:17:42.113Z,1029.16
2018-11-26T06:18:42.099Z,1029.18
2018-11-26T06:19:42.085Z,1029.24
2018-11-26T06:20:42.071Z,1029.25
2018-11-26T06:21:42.058Z,1029.29
2018-11-26T06:22:42.043Z,1029.3
2018-11-26T06:23:42.025Z,1029.3
2018-11-26T06:24:42.011Z,1029.31
2018-11-26T06:25:41.998Z,1029.33
2018-11-26T06:26:41.981Z,1029.32
2018-11-26T06:27:41.971Z,1029.34
2018-11-26T06:28:41.951Z,1029.35
2018-11-26T06:29:41.937Z,1029.35
2018-11-26T06:30:41.923Z,1029.34
2018-11-26T06:31:41.908Z,1029.36
2018-11-26T06:32:41.893Z,1029.42
2018-11-26T06:33:41.878Z,1029.37
2018-11-26T06:34:42.459Z,1029.4
2018-11-26T06:35:41.849Z,1029.44
2018-11-26T06:36:41.833Z,1029.44
2018-11-26T06:37:41.819Z,1029.4
2018-11-26T06:38:41.805Z,1029.35
2018-11-26T06:39:41.790Z,1029.36
2018-11-26T06:40:41.775Z,1029.41
2018-11-26T06:41:41.760Z,1029.42
2018-11-26T06:42:41.746Z,1029.44
2018-11-26T06:43:41.739Z,1029.44
2018-11-26T06:44:41.716Z,1029.45
2018-11-26T06:45:41.701Z,1029.48
2018-11-26T06:46:41.687Z,1029.54
2018-11-26T06:47:41.672Z,1029.51
2018-11-26T06:48:41.657Z,1029.51
2018-11-26T06:49:41.644Z,1029.47
2018-11-26T06:50:41.628Z,1029.46
2018-11-26T06:51:41.613Z,1029.43
2018-11-26T06:52:41.599Z,1029.39
2018-11-26T06:53:41.585Z,1029.4
2018-11-26T06:54:41.569Z,1029.4
2018-11-26T06:55:41.554Z,1029.43
2018-11-26T06:56:41.540Z,1029.43
2018-11-26T06:57:41.527Z,1029.44
2018-11-26T06:58:41.511Z,1029.43
2018-11-26T06:59:41.497Z,1029.4
2018-11-26T07:00:41.483Z,1029.42
2018-11-26T07:01:41.468Z,1029.41
2018-11-26T07:02:41.453Z,1029.42
2018-11-26T07:03:41.439Z,1029.41
2018-11-26T07:04:41.424Z,1029.39
2018-11-26T07:05:41.410Z,1029.45
2018-11-26T07:06:41.399Z,1029.5
2018-11-26T07:07:41.384Z,1029.45
2018-11-26T07:08:41.365Z,1029.54
2018-11-26T07:09:41.350Z,1029.53
2018-11-26T07:10:41.337Z,1029.48
2018-11-26T07:11:41.322Z,1029.5
2018-11-26T07:12:41.312Z,1029.46
2018-11-26T07:13:41.295Z,1029.48
2018-11-26T07:14:41.278Z,1029.41
2018-11-26T07:15:41.264Z,1029.45
2018-11-26T07:16:41.249Z,1029.45
2018-11-26T07:17:41.234Z,1029.37
2018-11-26T07:18:41.220Z,1029.39
2018-11-26T07:19:41.204Z,1029.31
2018-11-26T07:20:41.194Z,1029.31
2018-11-26T07:21:41.176Z,1029.38
2018-11-26T07:22:41.162Z,1029.37
2018-11-26T07:23:41.146Z,1029.34
2018-11-26T07:24:41.133Z,1029.36
2018-11-26T07:25:41.121Z,1029.34
2018-11-26T07:26:41.103Z,1029.37
2018-11-26T07:27:41.089Z,1029.33
2018-11-26T07:28:41.074Z,1029.31
2018-11-26T07:29:41.061Z,1029.3
2018-11-26T07:30:41.045Z,1029.28
2018-11-26T07:31:41.030Z,1029.28
2018-11-26T07:32:41.015Z,1029.26
2018-11-26T07:33:41.005Z,1029.24
2018-11-26T07:34:40.987Z,1029.15
2018-11-26T07:35:40.975Z,1029.18
2018-11-26T07:36:40.960Z,1029.2
2018-11-26T07:37:40.945Z,1029.24
2018-11-26T07:38:40.930Z,1029.19
2018-11-26T07:39:40.915Z,1029.2
2018-11-26T07:40:40.900Z,1029.25
2018-11-26T07:41:40.886Z,1029.29
2018-11-26T07:42:40.872Z,1029.24
2018-11-26T07:43:40.860Z,1029.18
2018-11-26T07:44:40.842Z,1029.22
2018-11-26T07:45:40.833Z,1029.14
2018-11-26T07:46:40.815Z,1029.2
2018-11-26T07:47:40.808Z,1029.17
2018-11-26T07:48:40.787Z,1029.17
2018-11-26T07:49:40.772Z,1029.15
2018-11-26T07:50:40.759Z,1029.18
2018-11-26T07:51:40.746Z,1029.2
2018-11-26T07:52:40.728Z,1029.19
2018-11-26T07:53:40.715Z,1029.18
2018-11-26T07:54:40.703Z,1029.15
2018-11-26T07:55:40.688Z,1029.15
2018-11-26T07:56:40.673Z,1029.12
2018-11-26T07:57:40.659Z,1029.13
2018-11-26T07:58:40.645Z,1029.11
2018-11-26T07:59:40.634Z,1029.06
2018-11-26T08:00:40.620Z,1029.07
2018-11-26T08:01:40.606Z,1029.09
2018-11-26T08:02:40.591Z,1029.06
2018-11-26T08:03:40.574Z,1029.08
2018-11-26T08:04:40.560Z,1029.1
2018-11-26T08:05:40.546Z,1029.06
2018-11-26T08:06:40.534Z,1029.07
2018-11-26T08:07:40.519Z,1029.04
2018-11-26T08:08:40.508Z,1029.03
2018-11-26T08:09:40.492Z,1028.94
2018-11-26T08:10:40.477Z,1028.88
2018-11-26T08:11:40.464Z,1028.87
2018-11-26T08:12:40.450Z,1028.87
2018-11-26T08:13:40.437Z,1028.8
2018-11-26T08:14:40.422Z,1028.77
2018-11-26T08:15:40.409Z,1028.74
2018-11-26T08:16:40.398Z,1028.74
2018-11-26T08:17:40.382Z,1028.78
2018-11-26T08:18:40.368Z,1028.84
2018-11-26T08:19:40.355Z,1028.86
2018-11-26T08:20:40.342Z,1028.83
2018-11-26T08:21:40.328Z,1028.8
2018-11-26T08:22:40.317Z,1028.77
2018-11-26T08:23:40.300Z,1028.79
2018-11-26T08:24:40.286Z,1028.77
2018-11-26T08:25:40.271Z,1028.84
2018-11-26T08:26:40.258Z,1028.79
2018-11-26T08:27:40.281Z,1028.76
2018-11-26T08:28:40.233Z,1028.74
2018-11-26T08:29:40.223Z,1028.82
2018-11-26T08:30:40.206Z,1028.73
2018-11-26T08:31:40.192Z,1028.75
2018-11-26T08:32:40.179Z,1028.74
2018-11-26T08:33:40.166Z,1028.8
2018-11-26T08:34:40.153Z,1028.73
2018-11-26T08:35:40.138Z,1028.72
2018-11-26T08:36:40.125Z,1028.74
2018-11-26T08:37:40.112Z,1028.72
2018-11-26T08:38:40.098Z,1028.69
2018-11-26T08:39:40.085Z,1028.7
2018-11-26T08:40:40.072Z,1028.72
2018-11-26T08:41:40.059Z,1028.77
2018-11-26T08:42:40.046Z,1028.72
2018-11-26T08:43:40.031Z,1028.75
2018-11-26T08:44:40.019Z,1028.72
2018-11-26T08:45:40.017Z,1028.74
2018-11-26T08:46:39.992Z,1028.67
2018-11-26T08:47:39.979Z,1028.69
2018-11-26T08:48:39.966Z,1028.75
2018-11-26T08:49:39.954Z,1028.72
2018-11-26T08:50:39.938Z,1028.65
2018-11-26T08:51:39.926Z,1028.6
2018-11-26T08:52:39.912Z,1028.61
2018-11-26T08:53:39.899Z,1028.56
2018-11-26T08:54:39.888Z,1028.59
2018-11-26T08:55:39.872Z,1028.61
2018-11-26T08:56:39.859Z,1028.62
2018-11-26T08:57:39.846Z,1028.64
2018-11-26T08:58:39.832Z,1028.59
2018-11-26T08:59:39.819Z,1028.61
2018-11-26T09:00:39.807Z,1028.58
2018-11-26T09:01:39.792Z,1028.64
2018-11-26T09:02:39.780Z,1028.66
2018-11-26T09:03:39.767Z,1028.69
2018-11-26T09:04:39.755Z,1028.79
2018-11-26T09:05:39.741Z,1028.72
2018-11-26T09:06:39.727Z,1028.72
2018-11-26T09:07:39.718Z,1028.62
2018-11-26T09:08:39.701Z,1028.66
2018-11-26T09:09:39.688Z,1028.66
2018-11-26T09:10:39.675Z,1028.66
2018-11-26T09:11:39.662Z,1028.62
2018-11-26T09:12:39.648Z,1028.6
2018-11-26T09:13:39.634Z,1028.63
2018-11-26T09:14:39.622Z,1028.61
2018-11-26T09:15:39.609Z,1028.63
2018-11-26T09:16:39.596Z,1028.67
2018-11-26T09:17:39.583Z,1028.59
2018-11-26T09:18:39.570Z,1028.53
2018-11-26T09:19:39.558Z,1028.5
2018-11-26T09:20:39.544Z,1028.46
2018-11-26T09:21:39.532Z,1028.5
2018-11-26T09:22:39.523Z,1028.47
2018-11-26T09:23:39.505Z,1028.38
2018-11-26T09:24:39.492Z,1028.38
2018-11-26T09:25:39.478Z,1028.41
2018-11-26T09:26:39.467Z,1028.37
2018-11-26T09:27:39.453Z,1028.34
2018-11-26T09:28:39.441Z,1028.29
2018-11-26T09:29:39.428Z,1028.25
2018-11-26T09:30:39.416Z,1028.28
2018-11-26T09:31:39.400Z,1028.28
2018-11-26T09:32:39.387Z,1028.24
2018-11-26T09:33:39.375Z,1028.2
2018-11-26T09:34:39.363Z,1028.18
2018-11-26T09:35:39.350Z,1028.17
2018-11-26T09:36:39.335Z,1028.2
2018-11-26T09:37:39.325Z,1028.18
2018-11-26T09:38:39.311Z,1028.22
2018-11-26T09:39:39.299Z,1028.21
2018-11-26T09:40:39.286Z,1028.22
2018-11-26T09:41:40.197Z,1028.31
2018-11-26T09:42:39.260Z,1028.18
2018-11-26T09:43:39.248Z,1028.18
2018-11-26T09:44:39.236Z,1028.22
2018-11-26T09:45:40.364Z,1028.13
2018-11-26T09:46:39.209Z,1028.2
2018-11-26T09:47:39.197Z,1028.2
2018-11-26T09:48:39.184Z,1028.1
2018-11-26T09:49:39.181Z,1028.09
2018-11-26T09:50:39.158Z,1027.99
2018-11-26T09:51:42.040Z,1028.05
2018-11-26T09:52:39.133Z,1028.12
2018-11-26T09:53:39.120Z,1028.12
2018-11-26T09:54:39.108Z,1028.18
2018-11-26T09:55:39.095Z,1028.14
2018-11-26T09:56:39.085Z,1028.12
2018-11-26T09:57:39.068Z,1028.08
2018-11-26T09:58:39.064Z,1028.11
2018-11-26T09:59:39.045Z,1028.04
2018-11-26T10:00:39.031Z,1028.06
2018-11-26T10:01:39.018Z,1028.1
2018-11-26T10:02:39.006Z,1028.03
2018-11-26T10:03:38.993Z,1028.02
2018-11-26T10:04:38.979Z,1028.11
2018-11-26T10:05:38.967Z,1027.89
2018-11-26T10:06:38.955Z,1027.88
2018-11-26T10:07:38.943Z,1027.78
2018-11-26T10:08:38.931Z,1027.74
2018-11-26T10:09:38.919Z,1027.62
2018-11-26T10:10:38.906Z,1027.55
2018-11-26T10:11:38.892Z,1027.5
2018-11-26T10:12:38.883Z,1027.49
2018-11-26T10:13:38.867Z,1027.46
2018-11-26T10:14:38.908Z,1027.53
2018-11-26T10:15:38.841Z,1027.41
2018-11-26T10:16:38.830Z,1027.4
2018-11-26T10:17:38.819Z,1027.38
2018-11-26T10:18:38.806Z,1027.37
2018-11-26T10:19:38.794Z,1027.44
2018-11-26T10:20:38.783Z,1027.44
2018-11-26T10:21:38.769Z,1027.52
2018-11-26T10:22:38.757Z,1027.51
2018-11-26T10:23:38.744Z,1027.57
2018-11-26T10:24:38.732Z,1027.57
2018-11-26T10:25:38.720Z,1027.6
2018-11-26T10:26:38.708Z,1027.64
2018-11-26T10:27:38.696Z,1027.63
2018-11-26T10:28:38.683Z,1027.67
2018-11-26T10:29:38.671Z,1027.71
2018-11-26T10:30:38.660Z,1027.72
2018-11-26T10:31:38.648Z,1027.77
2018-11-26T10:32:38.636Z,1027.78
2018-11-26T10:33:38.623Z,1027.77
2018-11-26T10:34:38.611Z,1027.75
2018-11-26T10:35:38.598Z,1027.82
2018-11-26T10:36:38.587Z,1027.78
2018-11-26T10:37:38.576Z,1027.8
2018-11-26T10:38:38.562Z,1027.8
2018-11-26T10:39:38.550Z,1027.82
2018-11-26T10:40:38.537Z,1027.83
2018-11-26T10:41:38.524Z,1027.86
2018-11-26T10:42:38.512Z,1027.93
2018-11-26T10:43:38.501Z,1027.96
2018-11-26T10:44:38.488Z,1028.08
2018-11-26T10:45:38.475Z,1028.1
2018-11-26T10:46:38.469Z,1028.16
2018-11-26T10:47:38.450Z,1028.15
2018-11-26T10:48:38.437Z,1028.2
2018-11-26T10:49:38.425Z,1028.19
2018-11-26T10:50:38.413Z,1028.16
2018-11-26T10:51:38.400Z,1028.21
2018-11-26T10:52:38.389Z,1028.19
2018-11-26T10:53:38.375Z,1028.13
2018-11-26T10:54:38.364Z,1028.17
2018-11-26T10:55:38.355Z,1028.13
2018-11-26T10:56:38.338Z,1028.13
2018-11-26T10:57:38.338Z,1028.17
2018-11-26T10:58:38.315Z,1028.17
2018-11-26T10:59:38.301Z,1028.17
2018-11-26T11:00:38.287Z,1028.15
2018-11-26T11:01:38.276Z,1028.15
2018-11-26T11:02:38.266Z,1028.14
2018-11-26T11:03:38.256Z,1028.24
2018-11-26T11:04:38.237Z,1028.09
2018-11-26T11:05:38.224Z,1028.11
2018-11-26T11:06:38.222Z,1028.09
2018-11-26T11:07:38.200Z,1028.16
2018-11-26T11:08:38.192Z,1028.18
2018-11-26T11:09:38.216Z,1028.2
2018-11-26T11:10:38.166Z,1028.21
2018-11-26T11:11:38.150Z,1028.31
2018-11-26T11:12:38.137Z,1028.22
2018-11-26T11:13:38.123Z,1028.28
2018-11-26T11:14:38.115Z,1028.29
2018-11-26T11:15:38.105Z,1028.31
2018-11-26T11:16:38.087Z,1028.33
2018-11-26T11:17:38.072Z,1028.3
2018-11-26T11:18:38.059Z,1028.38
2018-11-26T11:19:38.051Z,1028.45
2018-11-26T11:20:38.046Z,1028.34
2018-11-26T11:21:38.025Z,1028.33
2018-11-26T11:22:38.009Z,1028.27
2018-11-26T11:23:38.000Z,1028.34
2018-11-26T11:24:37.983Z,1028.26
2018-11-26T11:25:37.974Z,1028.29
2018-11-26T11:26:37.957Z,1028.37
2018-11-26T11:27:37.949Z,1028.4
2018-11-26T11:28:37.935Z,1028.39
2018-11-26T11:29:37.922Z,1028.41
2018-11-26T11:30:37.906Z,1028.48
2018-11-26T11:31:37.897Z,1028.46
2018-11-26T11:32:37.879Z,1028.49
2018-11-26T11:33:38.486Z,1028.51
2018-11-26T11:34:37.854Z,1028.53
2018-11-26T11:35:37.845Z,1028.53
2018-11-26T11:36:37.827Z,1028.55
2018-11-26T11:37:37.824Z,1028.54
2018-11-26T11:38:37.801Z,1028.52
2018-11-26T11:39:37.794Z,1028.54
2018-11-26T11:40:37.790Z,1028.5
2018-11-26T11:41:37.767Z,1028.51
2018-11-26T11:42:37.751Z,1028.49
2018-11-26T11:43:37.742Z,1028.53
2018-11-26T11:44:37.729Z,1028.51
2018-11-26T11:45:37.722Z,1028.47
2018-11-26T11:46:37.698Z,1028.52
2018-11-26T11:47:37.685Z,1028.57
2018-11-26T11:48:37.678Z,1028.57
2018-11-26T11:49:37.664Z,1028.58
2018-11-26T11:50:37.651Z,1028.61
2018-11-26T11:51:37.635Z,1028.63
2018-11-26T11:52:37.627Z,1028.65
2018-11-26T11:53:37.606Z,1028.71
2018-11-26T11:54:37.598Z,1028.71
2018-11-26T11:55:37.581Z,1028.88
2018-11-26T11:56:37.616Z,1028.77
2018-11-26T11:57:37.559Z,1028.92
2018-11-26T11:58:37.542Z,1028.88
2018-11-26T11:59:37.534Z,1028.9
2018-11-26T12:00:37.521Z,1028.94
2018-11-26T12:01:37.507Z,1028.93
2018-11-26T12:02:37.490Z,1028.96
2018-11-26T12:03:37.476Z,1029.12
2018-11-26T12:04:37.467Z,1029.02
2018-11-26T12:05:37.713Z,1029.06
2018-11-26T12:06:37.441Z,1028.91
2018-11-26T12:07:37.424Z,1029.05
2018-11-26T12:08:37.414Z,1029.11